createdAt,value
2022-08-07T00:02:36.255Z,15.57
2022-08-07T00:05:03.984Z,15.66
2022-08-07T00:07:40.937Z,15.60
2022-08-07T00:10:26.099Z,15.40
2022-08-07T00:13:00.503Z,15.52
2022-08-07T00:15:38.395Z,15.57
2022-08-07T00:18:19.676Z,15.67
2022-08-07T00:20:52.945Z,15.63
2022-08-07T00:23:22.270Z,15.66
2022-08-07T00:25:58.210Z,15.40
2022-08-07T00:28:31.635Z,15.29
2022-08-07T00:31:04.560Z,15.27
2022-08-07T00:33:35.564Z,15.12
2022-08-07T00:36:04.416Z,15.04
2022-08-07T00:38:34.871Z,14.97
2022-08-07T00:41:05.608Z,14.95
2022-08-07T00:44:00.598Z,15.09
2022-08-07T00:46:26.213Z,15.38
2022-08-07T00:48:54.101Z,15.36
2022-08-07T00:51:22.462Z,15.31
2022-08-07T00:54:14.942Z,15.06
2022-08-07T00:56:49.605Z,14.97
2022-08-07T00:59:20.327Z,15.13
2022-08-07T01:02:03.374Z,15.20
2022-08-07T01:04:37.463Z,15.08
2022-08-07T01:07:11.784Z,15.05
2022-08-07T01:10:06.398Z,14.92
2022-08-07T01:12:31.583Z,14.90
2022-08-07T01:15:03.987Z,14.81
2022-08-07T01:17:33.510Z,14.85
2022-08-07T01:20:06.551Z,14.92
2022-08-07T01:22:47.058Z,14.88
2022-08-07T01:25:54.445Z,14.81
2022-08-07T01:28:15.336Z,14.79
2022-08-07T01:30:43.806Z,14.65
2022-08-07T01:33:14.078Z,14.56
2022-08-07T01:35:53.266Z,14.76
2022-08-07T01:38:29.217Z,14.94
2022-08-07T01:41:05.423Z,14.71
2022-08-07T01:43:38.496Z,14.56
2022-08-07T01:46:12.250Z,14.38
2022-08-07T01:48:46.692Z,14.40
2022-08-07T01:52:02.259Z,14.32
2022-08-07T01:54:37.082Z,14.23
2022-08-07T01:57:08.411Z,14.24
2022-08-07T01:59:43.969Z,14.40
2022-08-07T02:02:32.834Z,14.32
2022-08-07T02:05:07.854Z,14.49
2022-08-07T02:07:51.315Z,14.45
2022-08-07T02:10:33.358Z,14.27
2022-08-07T02:13:03.950Z,14.37
2022-08-07T02:15:42.931Z,14.29
2022-08-07T02:18:11.881Z,14.40
2022-08-07T02:20:41.038Z,14.48
2022-08-07T02:23:11.661Z,14.36
2022-08-07T02:26:26.742Z,14.28
2022-08-07T02:28:32.302Z,14.32
2022-08-07T02:31:10.128Z,14.20
2022-08-07T02:34:03.190Z,14.21
2022-08-07T02:36:35.040Z,14.15
2022-08-07T02:39:16.985Z,14.14
2022-08-07T02:42:00.904Z,14.14
2022-08-07T02:44:34.648Z,14.08
2022-08-07T02:47:05.450Z,14.11
2022-08-07T02:49:56.507Z,14.15
2022-08-07T02:52:30.934Z,14.15
2022-08-07T02:55:04.506Z,14.08
2022-08-07T02:57:46.730Z,13.94
2022-08-07T03:00:16.664Z,14.20
2022-08-07T03:02:55.102Z,14.15
2022-08-07T03:05:25.728Z,14.16
2022-08-07T03:08:05.001Z,13.87
2022-08-07T03:10:40.972Z,14.00
2022-08-07T03:13:19.365Z,14.00
2022-08-07T03:15:56.500Z,13.85
2022-08-07T03:18:34.593Z,13.95
2022-08-07T03:21:08.213Z,14.01
2022-08-07T03:24:17.805Z,14.11
2022-08-07T03:26:31.342Z,14.02
2022-08-07T03:29:03.986Z,13.85
2022-08-07T03:31:43.200Z,13.77
2022-08-07T03:34:18.506Z,13.76
2022-08-07T03:36:52.811Z,13.69
2022-08-07T03:39:45.991Z,13.64
2022-08-07T03:42:10.614Z,13.69
2022-08-07T03:44:40.784Z,13.85
2022-08-07T03:47:13.188Z,13.88
2022-08-07T03:49:52.008Z,13.66
2022-08-07T03:52:26.440Z,13.58
2022-08-07T03:55:06.100Z,13.63
2022-08-07T03:58:35.450Z,13.51
2022-08-07T04:00:29.127Z,13.50
2022-08-07T04:02:59.374Z,13.39
2022-08-07T04:05:40.914Z,13.58
2022-08-07T04:08:21.008Z,13.55
2022-08-07T04:10:54.726Z,13.39
2022-08-07T04:14:10.510Z,13.58
2022-08-07T04:16:32.312Z,13.54
2022-08-07T04:19:14.865Z,13.36
2022-08-07T04:21:59.526Z,13.44
2022-08-07T04:24:39.127Z,13.50
2022-08-07T04:27:20.193Z,13.62
2022-08-07T04:30:01.197Z,13.55
2022-08-07T04:32:38.066Z,13.51
2022-08-07T04:35:13.974Z,13.59
2022-08-07T04:38:03.106Z,13.66
2022-08-07T04:40:32.922Z,13.58
2022-08-07T04:43:03.265Z,13.77
2022-08-07T04:45:52.086Z,13.82
2022-08-07T04:48:44.626Z,13.86
2022-08-07T04:51:27.112Z,14.05
2022-08-07T04:54:06.283Z,13.97
2022-08-07T04:58:15.666Z,14.15
2022-08-07T05:00:11.650Z,14.24
2022-08-07T05:02:26.478Z,14.35
2022-08-07T05:05:00.538Z,14.51
2022-08-07T05:07:36.918Z,14.62
2022-08-07T05:10:11.129Z,14.83
2022-08-07T05:12:51.328Z,14.99
2022-08-07T05:15:26.595Z,15.21
2022-08-07T05:18:06.203Z,15.54
2022-08-07T05:20:42.872Z,15.72
2022-08-07T05:23:16.134Z,15.74
2022-08-07T05:26:11.884Z,15.85
2022-08-07T05:28:36.828Z,16.06
2022-08-07T05:31:11.613Z,16.00
2022-08-07T05:33:51.359Z,16.18
2022-08-07T05:36:35.354Z,16.06
2022-08-07T05:40:05.040Z,16.28
2022-08-07T05:42:01.895Z,16.45
2022-08-07T05:44:35.603Z,16.45
2022-08-07T05:47:18.263Z,16.56
2022-08-07T05:49:49.686Z,16.66
2022-08-07T05:52:29.838Z,16.70
2022-08-07T05:55:10.414Z,16.94
2022-08-07T05:57:42.858Z,16.79
2022-08-07T06:00:16.047Z,16.83
2022-08-07T06:02:52.148Z,16.71
2022-08-07T06:05:25.865Z,16.91
2022-08-07T06:08:29.275Z,17.18
2022-08-07T06:10:51.278Z,17.34
2022-08-07T06:14:10.489Z,17.49
2022-08-07T06:16:13.399Z,17.60
2022-08-07T06:18:43.341Z,17.88
2022-08-07T06:22:16.874Z,17.88
2022-08-07T06:24:37.673Z,18.12
2022-08-07T06:27:00.101Z,18.29
2022-08-07T06:29:33.915Z,18.49
2022-08-07T06:32:02.369Z,18.45
2022-08-07T06:34:33.312Z,18.58
2022-08-07T06:37:02.581Z,18.64
2022-08-07T06:40:17.638Z,18.77
2022-08-07T06:42:34.923Z,19.14
2022-08-07T06:45:18.322Z,19.18
2022-08-07T06:47:58.539Z,19.46
2022-08-07T06:50:33.274Z,19.53
2022-08-07T06:53:04.624Z,19.57
2022-08-07T06:55:53.934Z,19.96
2022-08-07T06:58:27.673Z,20.30
2022-08-07T07:01:03.771Z,20.55
2022-08-07T07:03:47.523Z,20.86
2022-08-07T07:06:23.740Z,21.14
2022-08-07T07:08:54.484Z,21.09
2022-08-07T07:12:08.497Z,21.25
2022-08-07T07:14:14.097Z,21.46
2022-08-07T07:16:49.976Z,21.43
2022-08-07T07:19:56.480Z,21.36
2022-08-07T07:22:34.451Z,21.00
2022-08-07T07:25:13.962Z,21.48
2022-08-07T07:27:56.321Z,21.58
2022-08-07T07:30:38.330Z,21.78
2022-08-07T07:33:11.370Z,21.84
2022-08-07T07:35:44.060Z,22.05
2022-08-07T07:38:30.087Z,22.43
2022-08-07T07:41:02.332Z,22.41
2022-08-07T07:44:14.297Z,22.46
2022-08-07T07:46:37.174Z,22.68
2022-08-07T07:50:36.254Z,22.72
2022-08-07T07:52:02.524Z,23.07
2022-08-07T07:54:33.167Z,23.28
2022-08-07T07:57:04.544Z,23.67
2022-08-07T07:59:52.848Z,23.79
2022-08-07T08:02:33.980Z,23.67
2022-08-07T08:05:04.787Z,23.81
2022-08-07T08:07:35.962Z,23.64
2022-08-07T08:10:14.787Z,23.76
2022-08-07T08:13:00.658Z,24.14
2022-08-07T08:15:57.439Z,24.26
2022-08-07T08:18:24.766Z,24.54
2022-08-07T08:20:54.057Z,24.94
2022-08-07T08:23:39.955Z,24.97
2022-08-07T08:26:23.345Z,25.13
2022-08-07T08:28:53.707Z,25.15
2022-08-07T08:31:59.241Z,25.03
2022-08-07T08:34:26.755Z,24.54
2022-08-07T08:36:58.024Z,25.11
2022-08-07T08:39:39.824Z,25.34
2022-08-07T08:42:21.346Z,25.55
2022-08-07T08:45:04.824Z,25.64
2022-08-07T08:47:52.099Z,25.83
2022-08-07T08:50:35.324Z,25.88
2022-08-07T08:53:14.416Z,25.55
2022-08-07T08:55:54.585Z,25.74
2022-08-07T08:58:36.169Z,26.08
2022-08-07T09:01:15.101Z,25.68
2022-08-07T09:03:55.225Z,25.59
2022-08-07T09:06:34.508Z,25.77
2022-08-07T09:09:09.715Z,26.28
2022-08-07T09:12:02.763Z,26.10
2022-08-07T09:14:58.590Z,25.84
2022-08-07T09:17:59.360Z,26.04
2022-08-07T09:20:35.921Z,26.26
2022-08-07T09:24:32.557Z,26.41
2022-08-07T09:26:12.595Z,26.71
2022-08-07T09:30:01.981Z,26.67
2022-08-07T09:31:49.168Z,27.23
2022-08-07T09:34:26.229Z,26.74
2022-08-07T09:37:02.367Z,25.91
2022-08-07T09:39:54.755Z,26.48
2022-08-07T09:42:45.483Z,26.54
2022-08-07T09:47:37.226Z,26.57
2022-08-07T09:48:14.550Z,27.14
2022-08-07T09:51:01.811Z,26.54
2022-08-07T09:53:41.310Z,26.51
2022-08-07T09:56:44.048Z,26.11
2022-08-07T09:59:44.573Z,26.05
2022-08-07T10:02:55.776Z,26.55
2022-08-07T10:05:58.924Z,27.09
2022-08-07T10:08:43.944Z,26.91
2022-08-07T10:11:59.527Z,26.51
2022-08-07T10:14:11.363Z,27.24
2022-08-07T10:17:16.595Z,27.00
2022-08-07T10:19:52.464Z,27.06
2022-08-07T10:22:37.673Z,27.34
2022-08-07T10:25:20.799Z,27.49
2022-08-07T10:28:03.597Z,28.01
2022-08-07T10:30:37.728Z,27.58
2022-08-07T10:33:19.246Z,27.68
2022-08-07T10:36:19.166Z,27.44
2022-08-07T10:39:02.238Z,27.17
2022-08-07T10:41:51.502Z,27.52
2022-08-07T10:44:38.260Z,28.24
2022-08-07T10:47:14.709Z,28.23
2022-08-07T10:49:51.011Z,28.17
2022-08-07T10:52:31.820Z,27.59
2022-08-07T10:55:32.475Z,27.38
2022-08-07T10:58:06.981Z,27.95
2022-08-07T11:00:50.469Z,28.54
2022-08-07T11:03:37.270Z,29.54
2022-08-07T11:06:18.284Z,30.17
2022-08-07T11:08:51.775Z,30.11
2022-08-07T11:11:24.543Z,30.10
2022-08-07T11:14:44.973Z,30.09
2022-08-07T11:16:55.665Z,31.60
2022-08-07T11:19:32.488Z,31.62
2022-08-07T11:22:18.827Z,31.96
2022-08-07T11:25:07.229Z,30.79
2022-08-07T11:28:02.074Z,30.44
2022-08-07T11:30:42.307Z,30.56
2022-08-07T11:33:17.040Z,30.96
2022-08-07T11:35:59.608Z,32.18
2022-08-07T11:38:31.873Z,33.17
2022-08-07T11:41:03.724Z,31.88
2022-08-07T11:43:54.603Z,31.58
2022-08-07T11:46:38.085Z,31.95
2022-08-07T11:49:50.750Z,32.11
2022-08-07T11:52:29.003Z,32.23
2022-08-07T11:55:18.554Z,32.58
2022-08-07T11:58:04.617Z,32.66
2022-08-07T12:01:02.621Z,32.86
2022-08-07T12:03:52.308Z,32.50
2022-08-07T12:06:37.211Z,32.08
2022-08-07T12:09:16.646Z,32.88
2022-08-07T12:12:09.414Z,34.45
2022-08-07T12:14:45.583Z,33.72
2022-08-07T12:17:26.038Z,32.95
2022-08-07T12:20:14.014Z,34.43
2022-08-07T12:22:58.884Z,34.03
2022-08-07T12:26:02.797Z,34.07
2022-08-07T12:28:44.873Z,33.89
2022-08-07T12:31:22.305Z,33.65
2022-08-07T12:34:00.603Z,33.94
2022-08-07T12:36:33.489Z,33.24
2022-08-07T12:39:09.511Z,34.33
2022-08-07T12:41:53.483Z,33.13
2022-08-07T12:44:21.898Z,33.58
2022-08-07T12:47:06.441Z,33.75
2022-08-07T12:49:51.060Z,33.92
2022-08-07T12:52:33.909Z,35.18
2022-08-07T12:55:09.476Z,35.36
2022-08-07T12:58:01.414Z,34.73
2022-08-07T13:00:34.637Z,34.70
2022-08-07T13:03:22.881Z,35.11
2022-08-07T13:06:21.717Z,33.75
2022-08-07T13:09:01.533Z,34.29
2022-08-07T13:12:03.532Z,35.30
2022-08-07T13:14:51.468Z,34.11
2022-08-07T13:17:39.982Z,34.24
2022-08-07T13:20:16.958Z,34.38
2022-08-07T13:22:53.576Z,34.42
2022-08-07T13:25:29.842Z,34.71
2022-08-07T13:28:13.052Z,34.85
2022-08-07T13:30:52.188Z,34.42
2022-08-07T13:34:31.998Z,34.69
2022-08-07T13:36:25.695Z,35.34
2022-08-07T13:39:02.561Z,35.26
2022-08-07T13:41:42.237Z,35.17
2022-08-07T13:44:11.366Z,34.96
2022-08-07T13:46:49.522Z,34.67
2022-08-07T13:50:35.896Z,34.11
2022-08-07T13:52:32.583Z,36.11
2022-08-07T13:54:57.792Z,34.76
2022-08-07T13:57:38.102Z,37.22
2022-08-07T14:00:13.424Z,35.73
2022-08-07T14:02:57.323Z,34.55
2022-08-07T14:05:29.077Z,35.28
2022-08-07T14:08:08.702Z,36.07
2022-08-07T14:10:41.930Z,35.48
2022-08-07T14:13:16.503Z,36.18
2022-08-07T14:15:50.745Z,37.36
2022-08-07T14:18:28.852Z,35.45
2022-08-07T14:21:08.151Z,35.86
2022-08-07T14:24:00.452Z,35.71
2022-08-07T14:26:33.570Z,37.62
2022-08-07T14:30:03.056Z,36.53
2022-08-07T14:31:57.956Z,38.36
2022-08-07T14:34:30.515Z,37.73
2022-08-07T14:37:01.780Z,38.51
2022-08-07T14:40:16.725Z,36.59
2022-08-07T14:42:24.981Z,37.32
2022-08-07T14:44:59.917Z,38.69
2022-08-07T14:47:45.974Z,39.18
2022-08-07T14:50:19.126Z,36.71
2022-08-07T14:52:51.524Z,36.28
2022-08-07T14:55:21.578Z,36.32
2022-08-07T14:57:54.817Z,36.15
2022-08-07T15:00:31.216Z,37.32
2022-08-07T15:05:54.799Z,36.08
2022-08-07T15:08:34.287Z,35.52
2022-08-07T15:11:05.545Z,36.18
2022-08-07T15:13:35.869Z,37.34
2022-08-07T15:16:11.149Z,37.13
2022-08-07T15:18:45.264Z,36.11
2022-08-07T15:25:14.409Z,38.04
2022-08-07T15:26:58.553Z,36.23
2022-08-07T15:30:09.087Z,35.50
2022-08-07T15:32:39.768Z,35.36
2022-08-07T15:35:14.529Z,36.69
2022-08-07T15:38:04.694Z,36.09
2022-08-07T15:40:39.081Z,35.43
2022-08-07T15:49:15.311Z,36.05
2022-08-07T15:54:27.583Z,37.74
2022-08-07T15:56:59.190Z,36.65
2022-08-07T15:59:39.205Z,36.64
2022-08-07T16:02:08.856Z,36.12
2022-08-07T16:04:39.110Z,38.19
2022-08-07T16:08:30.356Z,38.01
2022-08-07T16:10:10.596Z,37.30
2022-08-07T16:13:01.142Z,38.39
2022-08-07T16:15:57.964Z,37.14
2022-08-07T16:18:50.419Z,35.57
2022-08-07T16:22:02.184Z,35.73
2022-08-07T16:24:33.723Z,36.72
2022-08-07T16:27:18.405Z,35.95
2022-08-07T16:30:30.533Z,35.35
2022-08-07T16:33:00.604Z,35.68
2022-08-07T16:35:58.370Z,35.32
2022-08-07T16:39:00.510Z,35.70
2022-08-07T16:41:48.772Z,35.05
2022-08-07T16:44:57.224Z,35.42
2022-08-07T16:47:51.602Z,35.68
2022-08-07T16:50:52.664Z,35.39
2022-08-07T16:54:06.463Z,34.05
2022-08-07T16:56:53.178Z,34.68
2022-08-07T16:59:45.824Z,35.15
2022-08-07T17:02:51.371Z,34.43
2022-08-07T17:06:19.379Z,34.24
2022-08-07T17:08:20.830Z,35.08
2022-08-07T17:10:57.736Z,34.24
2022-08-07T17:14:18.277Z,34.52
2022-08-07T17:16:43.803Z,34.71
2022-08-07T17:19:19.267Z,34.37
2022-08-07T17:22:10.619Z,34.94
2022-08-07T17:24:52.135Z,33.97
2022-08-07T17:27:32.559Z,33.82
2022-08-07T17:30:14.460Z,32.98
2022-08-07T17:33:03.400Z,32.91
2022-08-07T17:35:55.038Z,32.66
2022-08-07T17:38:33.376Z,32.14
2022-08-07T17:42:01.662Z,31.82
2022-08-07T17:44:03.009Z,31.46
2022-08-07T17:46:41.160Z,31.45
2022-08-07T17:49:14.659Z,30.81
2022-08-07T17:52:00.493Z,30.15
2022-08-07T17:54:54.004Z,29.96
2022-08-07T17:57:56.076Z,29.65
2022-08-07T18:00:33.180Z,29.16
2022-08-07T18:03:10.456Z,29.06
2022-08-07T18:06:03.208Z,28.59
2022-08-07T18:09:00.553Z,28.37
2022-08-07T18:12:17.489Z,27.84
2022-08-07T18:14:27.375Z,27.74
2022-08-07T18:16:59.866Z,27.57
2022-08-07T18:21:02.780Z,27.73
2022-08-07T18:22:30.095Z,27.81
2022-08-07T18:25:19.137Z,27.47
2022-08-07T18:28:10.334Z,27.17
2022-08-07T18:31:00.463Z,27.31
2022-08-07T18:33:58.825Z,26.85
2022-08-07T18:36:37.567Z,26.62
2022-08-07T18:40:05.825Z,26.52
2022-08-07T18:42:12.753Z,26.24
2022-08-07T18:47:49.070Z,26.13
2022-08-07T18:50:45.371Z,25.92
2022-08-07T18:53:17.607Z,25.81
2022-08-07T18:55:57.663Z,25.83
2022-08-07T18:58:39.353Z,25.64
2022-08-07T19:02:19.499Z,25.45
2022-08-07T19:04:19.687Z,25.34
2022-08-07T19:07:04.329Z,25.21
2022-08-07T19:09:55.681Z,25.09
2022-08-07T19:12:33.046Z,25.01
2022-08-07T19:16:02.612Z,25.12
2022-08-07T19:18:16.127Z,24.97
2022-08-07T19:21:09.898Z,24.73
2022-08-07T19:23:59.425Z,24.65
2022-08-07T19:26:55.467Z,24.58
2022-08-07T19:31:05.372Z,24.48
2022-08-07T19:32:26.081Z,24.35
2022-08-07T19:35:01.459Z,24.21
2022-08-07T19:37:56.300Z,24.18
2022-08-07T19:40:31.516Z,24.22
2022-08-07T19:43:02.667Z,24.16
2022-08-07T19:46:07.171Z,23.94
2022-08-07T19:48:24.845Z,23.72
2022-08-07T19:50:54.470Z,23.67
2022-08-07T19:54:29.579Z,23.71
2022-08-07T19:57:51.156Z,23.69
2022-08-07T19:59:15.433Z,23.38
2022-08-07T20:01:56.988Z,23.17
2022-08-07T20:04:31.808Z,23.00
2022-08-07T20:07:08.872Z,23.02
2022-08-07T20:10:35.583Z,23.05
2022-08-07T20:12:36.152Z,22.90
2022-08-07T20:15:05.293Z,22.87
2022-08-07T20:17:44.644Z,22.94
2022-08-07T20:20:29.895Z,22.97
2022-08-07T20:23:23.328Z,22.98
2022-08-07T20:25:53.213Z,22.83
2022-08-07T20:28:29.185Z,22.68
2022-08-07T20:30:58.574Z,22.70
2022-08-07T20:33:38.307Z,22.62
2022-08-07T20:36:08.745Z,22.40
2022-08-07T20:38:59.927Z,22.23
2022-08-07T20:41:27.750Z,22.35
2022-08-07T20:44:04.019Z,22.40
2022-08-07T20:46:42.871Z,22.27
2022-08-07T20:49:59.477Z,22.26
2022-08-07T20:52:01.390Z,22.21
2022-08-07T20:54:31.986Z,22.12
2022-08-07T20:57:03.703Z,22.04
2022-08-07T21:00:08.065Z,21.92
2022-08-07T21:02:41.953Z,21.87
2022-08-07T21:05:43.075Z,21.85
2022-08-07T21:08:14.662Z,21.85
2022-08-07T21:10:44.370Z,21.76
2022-08-07T21:13:17.195Z,21.60
2022-08-07T21:16:00.530Z,21.63
2022-08-07T21:18:34.242Z,21.27
2022-08-07T21:21:03.946Z,21.21
2022-08-07T21:23:49.439Z,21.19
2022-08-07T21:26:34.690Z,21.26
2022-08-07T21:29:12.797Z,21.13
2022-08-07T21:32:42.787Z,20.95
2022-08-07T21:34:46.324Z,21.05
2022-08-07T21:37:21.825Z,21.09
2022-08-07T21:39:56.544Z,20.88
2022-08-07T21:42:46.157Z,20.89
2022-08-07T21:46:10.901Z,20.95
2022-08-07T21:48:28.035Z,20.97
2022-08-07T21:51:00.635Z,20.77
2022-08-07T21:53:37.051Z,20.69
2022-08-07T21:56:39.834Z,20.28
2022-08-07T21:59:10.953Z,20.46
2022-08-07T22:02:11.130Z,20.37
2022-08-07T22:04:51.168Z,20.18
2022-08-07T22:07:31.399Z,20.16
2022-08-07T22:10:04.793Z,20.24
2022-08-07T22:12:38.663Z,20.22
2022-08-07T22:16:38.450Z,20.16
2022-08-07T22:18:04.492Z,20.06
2022-08-07T22:20:41.482Z,19.77
2022-08-07T22:23:21.563Z,19.38
2022-08-07T22:26:02.702Z,19.21
2022-08-07T22:28:38.732Z,19.30
2022-08-07T22:31:45.503Z,19.58
2022-08-07T22:34:07.430Z,19.70
2022-08-07T22:36:46.446Z,19.54
2022-08-07T22:39:23.444Z,19.30
2022-08-07T22:42:03.598Z,19.17
2022-08-07T22:44:58.202Z,19.00
2022-08-07T22:47:49.311Z,18.98
2022-08-07T22:50:45.057Z,19.02
2022-08-07T22:54:07.559Z,19.02
2022-08-07T22:56:33.473Z,19.08
2022-08-07T22:59:23.901Z,19.00
2022-08-07T23:02:02.712Z,19.00
2022-08-07T23:04:56.978Z,18.91
2022-08-07T23:07:49.099Z,19.05
2022-08-07T23:10:37.727Z,18.92
2022-08-07T23:13:29.080Z,18.74
2022-08-07T23:16:07.249Z,18.60
2022-08-07T23:19:14.032Z,18.37
2022-08-07T23:21:47.413Z,18.45
2022-08-07T23:24:35.012Z,18.61
2022-08-07T23:27:34.013Z,18.72
2022-08-07T23:30:39.172Z,18.82
2022-08-07T23:34:34.106Z,18.78
2022-08-07T23:36:29.023Z,18.54
2022-08-07T23:39:05.543Z,18.50
2022-08-07T23:41:47.406Z,18.43
2022-08-07T23:44:52.269Z,18.13
2022-08-07T23:47:52.811Z,18.10
2022-08-07T23:50:34.813Z,18.27
2022-08-07T23:53:19.147Z,17.95
2022-08-07T23:55:55.786Z,17.76
2022-08-07T23:58:29.607Z,18.00
